• Join FlightAware (Why Join?)
  • Login
  • US Flag 
05:59PM EDT


 

Airport Tracker/Info


-or-


 

Live Flight TrackerFlight Track Log ✈ DAL6036 ✈ 21-Apr-2013 ✈ KRIC - KDTW

Flight Track Log - Related Links

Times and Time Zones

All times are in EDT time to prevent confusion due to time zone crossing. See the DAL6036 flight status page for this flight to view local times or setup timezone preferences in your user account.

Time Position Orientation Groundspeed Altitude Reporting Facility
EDT Latitude Longitude Course Direction KTS MPH feet Rate Location/Type
05:02PM 37.5500 -77.3667 250° West 186 214 2,200  Level Potomac TRACON
05:04PM 37.5878 -77.4317 306° West 214 246 5,000 2,400 Climbing Washington Center
05:05PM 37.3879 -77.7916 257° West  Level FlightAware Approximate
05:05PM 37.6283 -77.4928 310° West 219 252 7,600  Level Washington Center
05:06PM 37.3622 -77.9119 254° West  Level FlightAware Approximate
05:06PM 37.6333 -77.5717 275° West 214 246 9,700  Level Washington Center
05:07PM 37.3458 -78.0336 253° West  Level FlightAware Approximate
05:07PM 37.6050 -77.6522 246° West 230 265 11,300  Level Washington Center
05:08PM 37.3139 -78.1515 250° West  Level FlightAware Approximate
05:08PM 37.5639 -77.7403 240° Southwest 253 291 12,700  Level Washington Center
05:09PM 37.5225 -77.8281 239° Southwest 277 319 14,500 1,740 Climbing Washington Center
05:10PM 37.4792 -77.9183 239° Southwest 293 337 16,200 1,680 Climbing Washington Center
05:11PM 37.4356 -78.0058 238° Southwest 298 343 17,900 1,440 Climbing Washington Center
05:12PM 37.3922 -78.0961 239° Southwest 298 343 19,100 1,380 Climbing Washington Center
05:13PM 37.3592 -78.1761 243° Southwest 298 343 20,700 1,560 Climbing Washington Center
05:14PM 37.3156 -78.2658 239° Southwest 298 343 22,300 1,560 Climbing Washington Center
05:15PM 37.3275 -78.3786 278° West 285 328 23,900 1,020 Climbing Washington Center
05:16PM 37.3644 -78.4897 293° West 310 357 24,400 960 Climbing Washington Center
05:17PM 37.4033 -78.6036 293° West 332 382 25,900 1,440 Climbing Washington Center
05:18PM 37.4383 -78.7097 293° West 342 394 27,300 1,200 Climbing Washington Center
05:19PM 37.4711 -78.8053 293° West 337 388 28,400 1,080 Climbing Washington Center
05:20PM 37.5078 -78.9114 294° West 337 388 29,500 1,080 Climbing Washington Center
05:21PM 37.5425 -79.0178 292° West 337 388 30,600 1,020 Climbing Washington Center
05:22PM 37.5789 -79.1269 293° West 337 388 31,600 660 Climbing Washington Center
05:23PM 37.6153 -79.2386 292° West 342 394 32,000 180 Climbing Washington Center
05:24PM 37.6608 -79.3772 293° West 359 413 32,000  Level Washington Center
05:25PM 37.6969 -79.4867 293° West 376 433 32,000  Level Washington Center
05:26PM 37.7389 -79.6122 293° West 385 443 32,000  Level Washington Center
05:27PM 37.7764 -79.7300 292° West 375 432 32,000  Level Washington Center
05:28PM 37.8178 -79.8611 292° West 370 426 32,000  Level Washington Center
05:29PM 37.8556 -79.9736 293° West 364 419 32,000  Level Washington Center
05:30PM 37.8908 -80.0889 291° West 358 412 32,000 300 Level Washington Center
05:31PM 37.9281 -80.2069 292° West 358 412 32,700 840 Climbing Washington Center
05:32PM 37.9614 -80.3144 291° West 358 412 33,700 600 Climbing Washington Center
05:33PM 38.0006 -80.4300 293° West 358 412 34,000 60 Climbing Washington Center
05:35PM 38.0983 -80.7333 292° West 392 451 34,000  Level Indianapolis Center
05:36PM 38.1386 -80.8622 292° West 393 452 34,000  Level Indianapolis Center
05:37PM 38.1867 -81.0186 291° West 396 456 34,000  Level Indianapolis Center
05:38PM 38.2283 -81.1494 292° West 397 457 34,000  Level Indianapolis Center
05:39PM 38.2989 -81.2625 309° West 422 486 34,000  Level Indianapolis Center
05:40PM 38.4150 -81.3172 340° North 448 516 34,000  Level Indianapolis Center
05:41PM 38.5353 -81.3683 342° North 454 522 34,000  Level Indianapolis Center
05:42PM 38.6611 -81.4219 342° North 454 522 34,000  Level Indianapolis Center
05:43PM 38.7967 -81.4700 345° North 465 535 34,000  Level Indianapolis Center
05:44PM 38.9217 -81.5017 349° North 465 535 34,000  Level Indianapolis Center
05:45PM 39.0467 -81.5344 348° North 460 529 34,000  Level Indianapolis Center
05:46PM 39.1722 -81.5672 349° North 461 531 34,000  Level Indianapolis Center
05:47PM 39.2964 -81.5997 349° North 457 526 34,000  Level Indianapolis Center
05:48PM 39.4447 -81.6403 348° North 454 522 34,000  Level Indianapolis Center
05:50PM 39.5694 -81.6725 349° North 456 525 34,000  Level Indianapolis Center
05:51PM 39.6919 -81.7053 348° North 450 518 34,000 -60 Level Indianapolis Center
05:52PM 39.8217 -81.7400 348° North 451 519 33,900 -60 Descending Indianapolis Center
05:53PM 39.9456 -81.7733 348° North 450 518 33,900  Level Indianapolis Center
05:54PM 40.0689 -81.8061 349° North 450 518 33,900 -240 Level Indianapolis Center
05:55PM 40.1917 -81.8394 348° North 448 516 33,500 -1,020 Descending Indianapolis Center
05:56PM 40.3192 -81.8742 348° North 443 510 31,900 -1,560 Descending Indianapolis Center
05:56PM 40.4078 -81.8972 349° North 451 519 30,900 -1,140 Descending Cleveland Center
05:57PM 40.5261 -81.9325 347° North 444 511 30,000 -480 Descending Cleveland Center
05:58PM 40.6467 -81.9650 348° North 444 511 30,000  Level Cleveland Center
05:59PM 40.7672 -81.9978 348° North 444 511 30,000 -60 Level Cleveland Center
06:00PM 40.8831 -82.0578 339° North 444 511 29,900 -840 Descending Cleveland Center
06:01PM 40.9969 -82.1211 337° Northwest 444 511 28,400 -1,560 Descending Cleveland Center
06:02PM 41.1025 -82.1675 342° North 444 511 26,800 -1,800 Descending Cleveland Center
06:03PM 41.2236 -82.1706 359° North 436 502 24,900 -1,920 Descending Cleveland Center
06:04PM 41.3381 -82.1789 357° North 415 478 23,000 -1,920 Descending Cleveland Center
06:05PM 41.4222 -82.2750 319° Northwest 392 451 21,100 -2,220 Descending Cleveland Center
06:06PM 41.5014 -82.4019 310° West 397 457 18,600 -2,340 Descending Cleveland Center
06:07PM 41.5461 -82.4753 309° West 386 444 17,200 -2,040 Descending Cleveland Center
06:07PM 41.5642 -82.5119 303° West 386 444 16,600 -2,580 Descending Cleveland Center
06:08PM 41.6069 -82.5797 310° West 350 403 14,600 -2,520 Descending Cleveland Center
06:08PM 41.6250 -82.6111 308° West 361 415 14,100 -2,400 Descending Cleveland Center
06:09PM 41.6697 -82.6875 308° West 343 395 12,200 -2,040 Descending Cleveland Center
06:09PM 41.6817 -82.7100 305° West 347 399 12,100 -180 Descending Cleveland Center
06:10PM 41.7322 -82.7925 309° West 319 367 12,000 -120 Descending Cleveland Center
06:11PM 41.7811 -82.8497 319° Northwest 295 339 11,900 -60 Descending Cleveland Center
06:12PM 41.8444 -82.9217 320° Northwest 294 338 11,900  Level Cleveland Center
06:13PM 41.9136 -83.0053 318° Northwest 286 329 11,900  Level Cleveland Center
06:14PM 41.9725 -83.0800 317° Northwest 285 328 12,000  Climbing Cleveland Center
06:15PM 42.0333 -83.1494 320° Northwest 285 328 11,900  Descending Cleveland Center
06:16PM 42.0822 -83.2075 319° Northwest 213 245 12,000 -480 Climbing Cleveland Center
06:17PM 42.1306 -83.2256 345° North 216 249 11,000 -1,260 Descending FAA TRACON SMA TRACON (SMA)
06:18PM 42.1489 -83.2283 354° North 222 255 10,500 -1,620 Descending FAA TRACON SMA TRACON (SMA)
06:18PM 42.1703 -83.2158 23° Northeast 227 261 9,900 -1,500 Descending FAA TRACON SMA TRACON (SMA)
06:18PM 42.1881 -83.2050 24° Northeast 234 269 9,500 -1,200 Descending FAA TRACON SMA TRACON (SMA)
06:19PM 42.2053 -83.1947 24° Northeast 223 257 9,100 -1,380 Descending FAA TRACON SMA TRACON (SMA)
06:19PM 42.2264 -83.1822 24° Northeast 219 252 8,600 -1,200 Descending FAA TRACON SMA TRACON (SMA)
06:19PM 42.2436 -83.1722 23° Northeast 219 252 8,300 -900 Descending FAA TRACON SMA TRACON (SMA)
06:20PM 42.2594 -83.1639 21° North 216 249 8,000 -600 Descending FAA TRACON SMA TRACON (SMA)
06:20PM 42.2814 -83.1506 24° Northeast 215 247 7,900 -600 Descending FAA TRACON SMA TRACON (SMA)
06:20PM 42.2978 -83.1414 22° Northeast 210 242 7,600 -1,140 Descending FAA TRACON SMA TRACON (SMA)
06:21PM 42.3186 -83.1300 22° Northeast 211 243 7,100 -1,800 Descending FAA TRACON SMA TRACON (SMA)
06:21PM 42.3356 -83.1214 21° North 212 244 6,500 -1,680 Descending FAA TRACON SMA TRACON (SMA)
06:21PM 42.3536 -83.1133 18° North 238 274 6,100 -1,380 Descending FAA TRACON SMA TRACON (SMA)
06:22PM 42.3756 -83.1153 356° North 226 260 5,600 -1,200 Descending FAA TRACON SMA TRACON (SMA)
06:22PM 42.3856 -83.1350 304° West 205 236 5,300 -900 Descending FAA TRACON SMA TRACON (SMA)
06:22PM 42.3900 -83.1614 283° West 193 222 5,000 -480 Descending FAA TRACON SMA TRACON (SMA)
06:23PM 42.3844 -83.1803 248° West 194 223 5,000 -300 Level FAA TRACON SMA TRACON (SMA)
06:23PM 42.3769 -83.2025 245° Southwest 192 221 4,800 -1,080 Descending FAA TRACON SMA TRACON (SMA)
06:23PM 42.3667 -83.2244 238° Southwest 189 217 4,300 -1,500 Descending FAA TRACON SMA TRACON (SMA)